Time,TemperatureF,DewpointF,PressureIn,WindDirection,WindDirectionDegrees,WindSpeedMPH,WindSpeedGustMPH,Humidity,HourlyPrecipIn,Conditions,Clouds,dailyrainin,SoftwareType,DateUTC
2018-04-25 00:02:00,63.2,56.9,29.99,NW,321,0.0,0.0,80,0.00,,,0.00,Wunderground v.1.15,2018-04-25 04:02:00,
2018-04-25 00:05:00,63.1,56.8,29.99,NW,321,0.0,0.0,80,0.00,,,0.00,Wunderground v.1.15,2018-04-25 04:05:00,
2018-04-25 00:11:00,62.9,56.6,29.99,NW,321,0.0,0.0,80,0.00,,,0.00,Wunderground v.1.15,2018-04-25 04:11:00,
2018-04-25 00:17:00,62.7,56.4,29.99,NW,321,0.0,0.0,80,0.00,,,0.00,Wunderground v.1.15,2018-04-25 04:17:00,
2018-04-25 00:20:00,62.6,56.3,29.99,NW,321,0.0,0.0,80,0.00,,,0.00,Wunderground v.1.15,2018-04-25 04:20:00,
2018-04-25 00:25:00,62.5,56.6,29.99,NW,321,0.0,0.0,81,0.00,,,0.00,Wunderground v.1.15,2018-04-25 04:25:00,
2018-04-25 00:31:00,62.4,56.8,30.00,NW,321,0.0,0.0,82,0.00,,,0.00,Wunderground v.1.15,2018-04-25 04:31:00,
2018-04-25 00:37:00,62.2,56.6,30.00,NW,321,0.0,0.0,82,0.00,,,0.00,Wunderground v.1.15,2018-04-25 04:37:00,
2018-04-25 00:43:00,62.1,56.9,30.00,NW,321,0.0,0.0,83,0.00,,,0.00,Wunderground v.1.15,2018-04-25 04:43:00,
2018-04-25 00:48:00,61.9,56.7,30.00,NW,321,0.0,0.0,83,0.00,,,0.00,Wunderground v.1.15,2018-04-25 04:48:00,
2018-04-25 00:53:00,61.7,56.1,30.00,NW,321,0.0,0.0,82,0.00,,,0.00,Wunderground v.1.15,2018-04-25 04:53:00,
2018-04-25 00:59:00,61.5,56.3,30.00,NW,321,0.0,0.0,83,0.00,,,0.00,Wunderground v.1.15,2018-04-25 04:59:00,
2018-04-25 01:04:00,61.4,56.2,30.00,NW,321,0.0,0.0,83,0.00,,,0.00,Wunderground v.1.15,2018-04-25 05:04:00,
2018-04-25 01:10:00,61.2,56.0,30.00,NW,321,0.0,0.0,83,0.00,,,0.00,Wunderground v.1.15,2018-04-25 05:10:00,
2018-04-25 01:16:00,61.1,55.9,29.99,NW,321,0.0,0.0,83,0.00,,,0.00,Wunderground v.1.15,2018-04-25 05:16:00,
2018-04-25 01:21:00,61.0,55.8,29.99,NW,321,0.0,0.0,83,0.00,,,0.00,Wunderground v.1.15,2018-04-25 05:21:00,
2018-04-25 01:26:00,60.8,55.6,29.99,NW,321,0.0,0.0,83,0.00,,,0.00,Wunderground v.1.15,2018-04-25 05:26:00,
2018-04-25 01:31:00,60.6,55.4,29.99,NW,321,0.0,0.0,83,0.00,,,0.00,Wunderground v.1.15,2018-04-25 05:31:00,
2018-04-25 01:37:00,60.5,55.3,29.99,NW,321,0.0,0.0,83,0.00,,,0.00,Wunderground v.1.15,2018-04-25 05:37:00,
2018-04-25 01:43:00,60.3,55.1,29.99,NW,321,0.0,0.0,83,0.00,,,0.00,Wunderground v.1.15,2018-04-25 05:43:00,
2018-04-25 01:48:00,60.3,55.1,29.98,NW,321,0.0,0.0,83,0.00,,,0.00,Wunderground v.1.15,2018-04-25 05:48:00,
2018-04-25 01:54:00,60.2,55.3,29.98,NW,321,0.0,0.0,84,0.00,,,0.00,Wunderground v.1.15,2018-04-25 05:54:00,
2018-04-25 02:00:00,60.2,55.3,29.98,NW,321,0.0,0.0,84,0.00,,,0.00,Wunderground v.1.15,2018-04-25 06:00:00,
2018-04-25 02:06:00,60.0,55.2,29.98,NW,321,0.0,0.0,84,0.00,,,0.00,Wunderground v.1.15,2018-04-25 06:06:00,
2018-04-25 02:12:00,59.9,55.1,29.98,NW,321,0.0,0.0,84,0.00,,,0.00,Wunderground v.1.15,2018-04-25 06:12:00,
2018-04-25 02:17:00,59.8,55.0,29.98,NW,321,0.0,0.0,84,0.00,,,0.00,Wunderground v.1.15,2018-04-25 06:17:00,
2018-04-25 02:23:00,59.8,55.0,29.98,NW,321,0.0,0.0,84,0.00,,,0.00,Wunderground v.1.15,2018-04-25 06:23:00,
2018-04-25 02:29:00,59.7,54.9,29.98,NW,321,0.0,0.0,84,0.00,,,0.00,Wunderground v.1.15,2018-04-25 06:29:00,
2018-04-25 02:34:00,59.6,54.8,29.97,NW,321,0.0,0.0,84,0.00,,,0.00,Wunderground v.1.15,2018-04-25 06:34:00,
2018-04-25 02:39:00,59.6,54.8,29.97,NW,321,0.0,0.0,84,0.00,,,0.00,Wunderground v.1.15,2018-04-25 06:39:00,
2018-04-25 02:45:00,59.6,54.8,29.97,NW,321,0.0,0.0,84,0.00,,,0.00,Wunderground v.1.15,2018-04-25 06:45:00,
2018-04-25 02:51:00,59.6,55.1,29.97,NW,321,0.0,0.0,85,0.00,,,0.00,Wunderground v.1.15,2018-04-25 06:51:00,
2018-04-25 02:56:00,59.6,55.1,29.97,NW,321,0.0,0.0,85,0.00,,,0.00,Wunderground v.1.15,2018-04-25 06:56:00,
2018-04-25 03:01:00,59.6,55.1,29.97,NW,321,0.0,0.0,85,0.00,,,0.00,Wunderground v.1.15,2018-04-25 07:01:00,
2018-04-25 03:06:00,59.5,55.0,29.97,NW,321,0.0,0.0,85,0.00,,,0.00,Wunderground v.1.15,2018-04-25 07:06:00,
2018-04-25 03:12:00,59.5,55.0,29.97,NW,321,0.0,0.0,85,0.00,,,0.00,Wunderground v.1.15,2018-04-25 07:12:00,
2018-04-25 03:18:00,59.4,54.9,29.96,NW,321,0.0,0.0,85,0.00,,,0.00,Wunderground v.1.15,2018-04-25 07:18:00,
2018-04-25 03:23:00,59.5,55.0,29.96,NW,321,0.0,0.0,85,0.00,,,0.00,Wunderground v.1.15,2018-04-25 07:23:00,
2018-04-25 03:29:00,59.5,55.0,29.96,NW,321,0.0,0.0,85,0.00,,,0.00,Wunderground v.1.15,2018-04-25 07:29:00,
2018-04-25 03:34:00,59.6,55.1,29.96,NW,321,0.0,0.0,85,0.00,,,0.00,Wunderground v.1.15,2018-04-25 07:34:00,
2018-04-25 03:39:00,59.6,55.1,29.96,NW,321,0.0,0.0,85,0.00,,,0.00,Wunderground v.1.15,2018-04-25 07:39:00,
2018-04-25 03:45:00,59.7,55.2,29.96,NW,321,0.0,0.0,85,0.00,,,0.00,Wunderground v.1.15,2018-04-25 07:45:00,
2018-04-25 03:51:00,59.8,55.3,29.95,NW,321,0.0,0.0,85,0.00,,,0.00,Wunderground v.1.15,2018-04-25 07:51:00,
2018-04-25 03:56:00,59.9,55.7,29.95,NW,321,0.0,0.0,86,0.00,,,0.00,Wunderground v.1.15,2018-04-25 07:56:00,
2018-04-25 04:02:00,60.0,55.8,29.95,NW,321,0.0,0.0,86,0.00,,,0.00,Wunderground v.1.15,2018-04-25 08:02:00,
2018-04-25 04:08:00,60.0,55.8,29.95,NW,321,0.0,0.0,86,0.00,,,0.00,Wunderground v.1.15,2018-04-25 08:08:00,
2018-04-25 04:13:00,60.0,55.8,29.95,NW,321,0.0,0.0,86,0.00,,,0.00,Wunderground v.1.15,2018-04-25 08:13:00,
2018-04-25 04:19:00,59.9,55.7,29.95,NW,321,0.0,0.0,86,0.00,,,0.00,Wunderground v.1.15,2018-04-25 08:19:00,
2018-04-25 04:24:00,59.9,55.7,29.95,NW,321,0.0,0.0,86,0.00,,,0.00,Wunderground v.1.15,2018-04-25 08:24:00,
2018-04-25 04:29:00,59.8,55.6,29.95,NW,321,0.0,0.0,86,0.00,,,0.00,Wunderground v.1.15,2018-04-25 08:29:00,
2018-04-25 04:35:00,59.7,55.5,29.95,NW,321,0.0,0.0,86,0.00,,,0.00,Wunderground v.1.15,2018-04-25 08:35:00,
2018-04-25 04:41:00,59.6,55.4,29.95,NW,321,0.0,0.0,86,0.00,,,0.00,Wunderground v.1.15,2018-04-25 08:41:00,
2018-04-25 04:46:00,59.5,55.3,29.95,NW,321,0.0,0.0,86,0.00,,,0.00,Wunderground v.1.15,2018-04-25 08:46:00,
2018-04-25 04:51:00,59.4,55.2,29.95,NW,321,0.0,0.0,86,0.00,,,0.00,Wunderground v.1.15,2018-04-25 08:51:00,
2018-04-25 04:57:00,59.4,55.2,29.95,NW,321,0.0,0.0,86,0.00,,,0.00,Wunderground v.1.15,2018-04-25 08:57:00,
2018-04-25 05:03:00,59.4,55.2,29.95,NW,321,0.0,0.0,86,0.00,,,0.00,Wunderground v.1.15,2018-04-25 09:03:00,
2018-04-25 05:09:00,59.3,55.1,29.95,NW,321,0.0,0.0,86,0.00,,,0.00,Wunderground v.1.15,2018-04-25 09:09:00,